Time;durP1;ratioP1;P1;durP2;ratioP2;P2;SDS_P1;SDS_P2;PMS_P1;PMS_P2;Temp;Humidity;BMP_temperature;BMP_pressure;BME280_temperature;BME280_humidity;BME280_pressure;Samples;Min_cycle;Max_cycle;Signal;HPM_P1;HPM_P2
2022/07/03 00:01:52;;;;;;;2.97;1.83;;;;;;;18.18;62.68;100088.97;5114055;28;20128;-56
2022/07/03 00:04:36;;;;;;;2.95;2.00;;;;;;;18.19;62.79;100084.59;5113728;28;20055;-56
2022/07/03 00:07:20;;;;;;;2.85;1.73;;;;;;;18.17;62.83;100074.13;5113935;28;20067;-57
2022/07/03 00:10:05;;;;;;;2.75;1.75;;;;;;;18.16;62.84;100077.63;5114142;28;20050;-57
2022/07/03 00:12:49;;;;;;;2.92;2.00;;;;;;;18.15;63.00;100086.38;5113777;28;20505;-57
2022/07/03 00:15:33;;;;;;;3.10;1.80;;;;;;;18.16;62.88;100080.25;5113699;28;20049;-57
2022/07/03 00:18:16;;;;;;;3.45;2.05;;;;;;;18.16;62.74;100082.00;5113658;28;20070;-57
2022/07/03 00:21:06;;;;;;;3.83;1.77;;;;;;;18.17;62.92;100089.00;5113657;28;20039;-57
2022/07/03 00:24:07;;;;;;;3.58;2.50;;;;;;;18.16;63.10;100085.50;5098073;28;20132;-57
2022/07/03 00:26:53;;;;;;;2.88;2.00;;;;;;;18.17;63.10;100081.97;5113726;28;20125;-57
2022/07/03 00:29:41;;;;;;;3.17;1.75;;;;;;;18.18;62.90;100094.22;5098136;28;20051;-57
2022/07/03 00:32:26;;;;;;;4.63;2.10;;;;;;;18.19;63.01;100092.47;5098268;28;20061;-57
2022/07/03 00:35:16;;;;;;;5.63;2.42;;;;;;;18.19;62.94;100092.47;5098473;28;20047;-56
2022/07/03 00:38:01;;;;;;;4.20;2.53;;;;;;;18.17;62.86;100089.84;5098100;28;20093;-56
2022/07/03 00:40:45;;;;;;;4.75;2.70;;;;;;;18.19;62.98;100085.44;5098255;28;20066;-56
2022/07/03 00:43:29;;;;;;;4.90;2.25;;;;;;;18.19;62.83;100084.59;5115409;28;20422;-56
2022/07/03 00:46:13;;;;;;;3.55;2.20;;;;;;;18.17;62.91;100079.34;5117355;28;20517;-55
2022/07/03 00:48:59;;;;;;;3.50;2.28;;;;;;;18.18;63.12;100083.72;5117550;28;20077;-55
2022/07/03 00:51:46;;;;;;;3.40;2.40;;;;;;;18.19;62.94;100087.22;5101782;28;20135;-56
2022/07/03 00:54:34;;;;;;;5.35;2.08;;;;;;;18.17;62.76;100081.13;5102221;28;20047;-56
2022/07/03 00:57:20;;;;;;;4.13;2.70;;;;;;;18.15;62.83;100078.50;5101447;28;20055;-56
2022/07/03 01:00:05;;;;;;;5.80;2.65;;;;;;;18.16;62.65;100080.25;5101988;28;20050;-57
2022/07/03 01:02:55;;;;;;;4.03;2.85;;;;;;;18.15;62.98;100081.13;5101978;28;20097;-56
2022/07/03 01:05:43;;;;;;;4.18;2.30;;;;;;;18.14;62.66;100071.53;5101394;28;20063;-57
2022/07/03 01:08:41;;;;;;;3.67;2.08;;;;;;;18.14;62.94;100076.78;5101829;28;20091;-57
2022/07/03 01:11:35;;;;;;;4.53;2.35;;;;;;;18.13;62.67;100069.81;5101114;28;20043;-57
2022/07/03 01:14:54;;;;;;;7.15;3.15;;;;;;;18.13;62.86;100067.22;5101866;28;20047;-57
2022/07/03 01:17:40;;;;;;;4.63;2.30;;;;;;;18.12;62.85;100068.09;5116318;28;20119;-56
2022/07/03 01:20:28;;;;;;;4.38;2.80;;;;;;;18.12;62.63;100070.72;5116790;28;20046;-55
2022/07/03 01:23:52;;;;;;;3.60;2.72;;;;;;;18.11;62.73;100075.06;5101382;28;20128;-56
2022/07/03 01:26:41;;;;;;;9.07;3.10;;;;;;;18.12;62.81;100062.84;5087292;28;20536;-57
2022/07/03 01:30:01;;;;;;;4.28;2.67;;;;;;;18.11;62.79;100067.22;5101349;28;20130;-57
2022/07/03 01:32:47;;;;;;;4.53;2.45;;;;;;;18.12;63.00;100070.72;5100840;28;20090;-57
2022/07/03 01:35:40;;;;;;;4.53;2.47;;;;;;;18.12;63.01;100062.84;5101265;28;20046;-56
2022/07/03 01:38:27;;;;;;;8.48;3.15;;;;;;;18.13;62.58;100084.69;5116301;28;20128;-57
2022/07/03 01:41:12;;;;;;;4.93;3.05;;;;;;;18.08;62.97;100108.34;5100720;28;20046;-57
2022/07/03 01:44:01;;;;;;;5.75;3.00;;;;;;;18.04;63.04;100104.03;5100981;28;20084;-57
2022/07/03 01:46:46;;;;;;;8.23;3.50;;;;;;;17.98;63.19;100107.59;5100654;28;20090;-56
2022/07/03 01:49:32;;;;;;;8.13;3.28;;;;;;;17.98;62.83;100104.97;5115630;28;20047;-57
2022/07/03 01:52:19;;;;;;;7.93;2.67;;;;;;;17.99;63.00;100103.22;5101022;28;20082;-56
2022/07/03 01:55:04;;;;;;;4.65;2.50;;;;;;;17.98;62.96;100102.38;5100622;28;20058;-56
2022/07/03 01:57:50;;;;;;;8.05;3.35;;;;;;;17.97;63.05;100097.97;5100508;28;20214;-56
2022/07/03 02:00:54;;;;;;;6.30;3.13;;;;;;;17.98;62.90;100101.50;5100867;28;20138;-56
2022/07/03 02:03:46;;;;;;;6.78;3.08;;;;;;;17.96;62.84;100107.59;5100355;28;20131;-56
2022/07/03 02:06:30;;;;;;;5.50;3.30;;;;;;;17.97;63.17;100100.59;5100692;28;20051;-57
2022/07/03 02:09:20;;;;;;;5.20;3.40;;;;;;;17.97;63.16;100108.47;5100458;28;20050;-56
2022/07/03 02:12:11;;;;;;;8.15;3.17;;;;;;;17.94;62.95;100101.50;5100665;28;20078;-56
2022/07/03 02:15:05;;;;;;;5.43;3.00;;;;;;;17.94;63.16;100091.03;5100272;28;20127;-57
2022/07/03 02:17:51;;;;;;;7.85;3.75;;;;;;;17.92;62.98;100090.19;5100077;28;20046;-57
2022/07/03 02:20:38;;;;;;;6.15;2.83;;;;;;;17.93;63.03;100097.16;5099747;28;20100;-60
2022/07/03 02:23:29;;;;;;;7.25;3.03;;;;;;;17.91;62.92;100101.56;5100604;28;20069;-56
2022/07/03 02:26:17;;;;;;;4.93;2.67;;;;;;;17.90;63.15;100104.19;5100439;28;20092;-56
2022/07/03 02:29:06;;;;;;;6.28;2.75;;;;;;;17.90;63.11;100106.81;5099760;28;20081;-57
2022/07/03 02:31:58;;;;;;;6.30;3.20;;;;;;;17.90;62.99;100097.19;5115287;28;20143;-57
2022/07/03 02:34:47;;;;;;;6.05;2.85;;;;;;;17.90;63.22;100093.72;5115243;28;20406;-57
2022/07/03 02:38:20;;;;;;;6.93;3.08;;;;;;;17.88;62.95;100106.81;5099331;28;20046;-57
2022/07/03 02:41:12;;;;;;;10.75;2.83;;;;;;;17.88;63.09;100119.94;5038285;28;20064;-56
2022/07/03 02:44:14;;;;;;;5.38;3.38;;;;;;;17.87;62.99;100126.06;5038624;28;20075;-57
2022/07/03 02:47:11;;;;;;;6.60;3.53;;;;;;;17.85;62.92;100122.59;5099676;28;20077;-56
2022/07/03 02:49:55;;;;;;;8.38;2.67;;;;;;;17.85;63.12;100119.13;5099311;28;20092;-57
2022/07/03 02:52:42;;;;;;;4.05;2.67;;;;;;;17.84;63.07;100114.75;5115053;28;20050;-57
2022/07/03 02:55:34;;;;;;;4.53;2.63;;;;;;;17.83;63.10;100120.88;5114530;28;20422;-57
2022/07/03 02:58:18;;;;;;;7.70;3.13;;;;;;;17.83;62.96;100126.13;5099226;28;20559;-57
2022/07/03 03:01:19;;;;;;;6.03;3.20;;;;;;;17.80;63.17;100117.41;5114955;28;20089;-57
2022/07/03 03:04:26;;;;;;;4.45;2.70;;;;;;;17.80;63.08;100127.03;5099273;28;20050;-56
2022/07/03 03:07:17;;;;;;;6.40;2.35;;;;;;;17.78;63.03;100126.19;5098694;28;20050;-56
2022/07/03 03:10:02;;;;;;;5.43;3.03;;;;;;;17.77;63.23;100129.69;5099554;28;20097;-56
2022/07/03 03:12:52;;;;;;;3.75;2.70;;;;;;;17.76;62.87;100120.94;5099542;28;20061;-55
2022/07/03 03:15:38;;;;;;;6.32;3.20;;;;;;;17.76;63.00;100122.72;5099238;28;20579;-55
2022/07/03 03:18:22;;;;;;;6.88;2.67;;;;;;;17.76;63.03;100127.97;5099103;28;20046;-55
2022/07/03 03:21:15;;;;;;;4.15;2.40;;;;;;;17.75;63.12;100129.69;5098876;28;20100;-55
2022/07/03 03:24:00;;;;;;;6.22;2.75;;;;;;;17.74;63.12;100129.72;5098681;28;20047;-56
2022/07/03 03:26:44;;;;;;;5.93;2.83;;;;;;;17.73;63.18;100134.13;5127994;27;20050;-55
2022/07/03 03:29:29;;;;;;;;;;;;;;;17.71;62.88;100138.50;5114810;28;20051;-56
2022/07/03 03:32:14;;;;;;;7.30;2.97;;;;;;;17.69;63.09;100128.91;5114275;28;20297;-57
2022/07/03 03:34:58;;;;;;;3.90;2.45;;;;;;;17.69;63.22;100129.78;5114035;28;20097;-56
2022/07/03 03:37:44;;;;;;;6.95;3.03;;;;;;;17.70;63.16;100130.63;5113763;28;20478;-56
2022/07/03 03:40:28;;;;;;;4.57;2.45;;;;;;;17.69;63.11;100134.16;5099006;28;20540;-57
2022/07/03 03:43:13;;;;;;;5.20;3.03;;;;;;;17.69;63.19;100134.16;5113772;28;20062;-57
2022/07/03 03:45:57;;;;;;;8.40;3.65;;;;;;;17.69;63.10;100134.16;5099085;28;20108;-56
2022/07/03 03:48:42;;;;;;;4.72;2.90;;;;;;;17.69;62.98;100136.78;5098661;28;20081;-56
2022/07/03 03:51:26;;;;;;;5.75;3.08;;;;;;;17.68;63.34;100135.03;5098551;28;20092;-57
2022/07/03 03:54:10;;;;;;;12.02;3.28;;;;;;;17.68;63.13;100140.28;5098302;28;20047;-56
2022/07/03 03:56:54;;;;;;;5.55;2.67;;;;;;;17.67;63.32;100133.31;5113985;28;20055;-57
2022/07/03 03:59:38;;;;;;;8.45;2.92;;;;;;;17.67;63.07;100138.56;5114093;28;20054;-57
2022/07/03 04:02:22;;;;;;;4.20;2.60;;;;;;;17.67;63.07;100144.66;5114124;28;20409;-57
2022/07/03 04:05:06;;;;;;;7.20;3.00;;;;;;;17.67;63.26;100134.19;5114253;28;20057;-56
2022/07/03 04:07:50;;;;;;;5.15;3.08;;;;;;;17.66;63.03;100148.16;5113573;28;20050;-57
2022/07/03 04:10:34;;;;;;;7.55;3.50;;;;;;;17.67;63.21;100142.03;5113645;28;20127;-56
2022/07/03 04:13:21;;;;;;;8.25;3.22;;;;;;;17.67;62.99;100146.44;5113444;28;20092;-56
2022/07/03 04:16:05;;;;;;;6.18;3.35;;;;;;;17.65;63.28;100142.06;5113675;28;20073;-57
2022/07/03 04:18:49;;;;;;;7.70;3.10;;;;;;;17.64;63.09;100149.94;5116883;28;20092;-57
2022/07/03 04:21:33;;;;;;;8.70;2.58;;;;;;;17.63;63.16;100149.06;5118184;28;20512;-56
2022/07/03 04:24:17;;;;;;;10.35;2.85;;;;;;;17.62;63.29;100152.59;5118459;28;20063;-57
2022/07/03 04:27:01;;;;;;;9.38;3.20;;;;;;;17.63;63.34;100156.94;5117909;28;20092;-57
2022/07/03 04:29:45;;;;;;;8.27;3.47;;;;;;;17.64;63.31;100152.56;5117411;28;20055;-57
2022/07/03 04:32:29;;;;;;;6.07;3.10;;;;;;;17.63;63.30;100150.81;5117676;28;20182;-57
2022/07/03 04:35:13;;;;;;;5.82;2.90;;;;;;;17.63;63.19;100164.81;5102220;28;20051;-56
2022/07/03 04:37:57;;;;;;;;;;;;;;;17.62;63.26;100162.19;5117559;28;20047;-57
2022/07/03 04:40:41;;;;;;;5.28;2.90;;;;;;;17.57;63.33;100180.59;5117067;28;20429;-58
2022/07/03 04:43:25;;;;;;;7.50;3.22;;;;;;;17.60;63.71;100164.81;5117229;28;20464;-55
2022/07/03 04:46:09;;;;;;;7.82;3.08;;;;;;;17.60;63.26;100163.94;5117237;28;20055;-56
2022/07/03 04:48:53;;;;;;;4.10;2.97;;;;;;;17.58;63.31;100182.31;5117630;28;20444;-56
2022/07/03 04:51:37;;;;;;;6.25;2.80;;;;;;;17.58;63.45;100179.69;5117321;28;20050;-55
2022/07/03 04:54:24;;;;;;;6.22;3.28;;;;;;;17.58;63.22;100176.22;5116790;28;20046;-55
2022/07/03 04:57:08;;;;;;;7.97;3.55;;;;;;;17.57;63.42;100177.97;5101629;28;20096;-57
2022/07/03 04:59:52;;;;;;;4.43;2.97;;;;;;;17.58;63.30;100179.69;5117639;28;20085;-55
2022/07/03 05:02:36;;;;;;;5.80;3.03;;;;;;;17.58;63.59;100179.69;5116963;28;20097;-55
2022/07/03 05:05:19;;;;;;;5.53;3.05;;;;;;;17.58;63.53;100184.94;5117273;28;20054;-55
2022/07/03 05:08:04;;;;;;;5.07;2.83;;;;;;;17.57;63.63;100191.06;5117482;28;20128;-56
2022/07/03 05:10:48;;;;;;;;;;;;;;;17.57;63.40;100190.22;5101993;28;20042;-55
2022/07/03 05:13:32;;;;;;;6.35;2.90;;;;;;;17.54;63.81;100188.47;5101495;28;20390;-55
2022/07/03 05:16:16;;;;;;;6.93;3.67;;;;;;;17.56;63.85;100194.56;5116834;28;20088;-57
2022/07/03 05:19:00;;;;;;;8.90;3.47;;;;;;;17.56;63.70;100199.81;5101021;28;20050;-57
2022/07/03 05:21:44;;;;;;;6.90;3.97;;;;;;;17.57;63.85;100203.31;5116718;28;20084;-57
2022/07/03 05:24:28;;;;;;;6.30;3.22;;;;;;;17.57;63.91;100200.69;5116501;28;20092;-57
2022/07/03 05:27:11;;;;;;;6.95;4.07;;;;;;;17.55;63.93;100198.06;5116390;28;20517;-57
2022/07/03 05:29:56;;;;;;;9.32;3.55;;;;;;;17.56;64.06;100199.81;5115624;28;20097;-57
2022/07/03 05:32:40;;;;;;;3.95;2.70;;;;;;;17.56;63.65;100209.44;5116031;28;20084;-56
2022/07/03 05:35:24;;;;;;;10.05;3.47;;;;;;;17.57;63.77;100206.78;5116493;28;20085;-57
2022/07/03 05:38:08;;;;;;;9.43;3.42;;;;;;;17.55;63.91;100194.59;5116587;28;20051;-57
2022/07/03 05:40:52;;;;;;;4.18;3.20;;;;;;;17.56;64.04;100198.94;5115867;28;20059;-56
2022/07/03 05:43:36;;;;;;;7.50;3.33;;;;;;;17.56;63.94;100194.56;5116056;28;20050;-58
2022/07/03 05:46:20;;;;;;;5.10;3.30;;;;;;;17.57;63.89;100198.06;5116388;28;20097;-57
2022/07/03 05:49:05;;;;;;;5.43;3.08;;;;;;;17.56;64.19;100199.81;5115982;28;20473;-57
2022/07/03 05:51:49;;;;;;;5.22;3.75;;;;;;;17.55;63.98;100203.31;5116145;28;20046;-57
2022/07/03 05:54:33;;;;;;;6.57;2.97;;;;;;;17.53;63.95;100205.06;5115995;28;20058;-56
2022/07/03 05:57:17;;;;;;;5.93;2.92;;;;;;;17.53;63.99;100204.22;5115965;28;20058;-56
2022/07/03 06:00:01;;;;;;;3.30;2.65;;;;;;;17.51;64.03;100204.25;5116181;28;20517;-56
2022/07/03 06:02:46;;;;;;;6.00;3.10;;;;;;;17.53;63.81;100197.22;5115689;28;20042;-57
2022/07/03 06:05:29;;;;;;;4.20;2.67;;;;;;;17.53;63.52;100201.59;5116196;28;20096;-57
2022/07/03 06:08:14;;;;;;;4.88;2.83;;;;;;;17.53;63.69;100212.06;5115612;28;20464;-56
2022/07/03 06:10:58;;;;;;;4.50;2.92;;;;;;;17.51;63.86;100212.09;5116024;28;20073;-57
2022/07/03 06:13:42;;;;;;;6.97;2.83;;;;;;;17.52;64.07;100205.94;5115512;28;20051;-57
2022/07/03 06:16:28;;;;;;;5.90;2.80;;;;;;;17.51;63.89;100212.09;5115610;28;20042;-56
2022/07/03 06:19:14;;;;;;;4.35;2.15;;;;;;;17.50;63.89;100205.97;5115376;28;20176;-57
2022/07/03 06:21:58;;;;;;;3.53;2.28;;;;;;;17.49;63.74;100211.25;5115079;28;20073;-57
2022/07/03 06:24:42;;;;;;;4.93;2.25;;;;;;;17.49;63.82;100217.34;5100564;28;20076;-57
2022/07/03 06:27:26;;;;;;;3.75;2.00;;;;;;;17.48;63.78;100214.75;5115201;28;20054;-57
2022/07/03 06:30:13;;;;;;;6.18;2.67;;;;;;;17.47;63.73;100216.47;5115481;28;20062;-57
2022/07/03 06:32:59;;;;;;;3.80;1.77;;;;;;;17.45;63.76;100207.75;5099995;28;20093;-57
2022/07/03 06:35:44;;;;;;;5.90;2.40;;;;;;;17.44;63.55;100211.25;5115417;28;20050;-58
2022/07/03 06:38:28;;;;;;;3.10;1.90;;;;;;;17.45;63.49;100215.63;5114945;28;20054;-55
2022/07/03 06:41:12;;;;;;;3.22;2.38;;;;;;;17.44;63.79;100215.66;5114033;28;20058;-55
2022/07/03 06:43:56;;;;;;;2.47;2.10;;;;;;;17.43;63.62;100208.69;5115181;28;20042;-55
2022/07/03 06:46:40;;;;;;;3.65;2.00;;;;;;;17.44;63.71;100213.03;5099997;28;20050;-56
2022/07/03 06:49:24;;;;;;;3.90;2.10;;;;;;;17.44;63.70;100211.25;5114898;28;20521;-55
2022/07/03 06:52:11;;;;;;;3.25;2.00;;;;;;;17.43;63.55;100212.19;5114583;28;20059;-55
2022/07/03 06:54:55;;;;;;;3.67;2.17;;;;;;;17.46;63.75;100206.03;5099837;28;20050;-55
2022/07/03 06:57:39;;;;;;;3.83;2.22;;;;;;;17.47;63.62;100205.16;5114712;28;20051;-55
2022/07/03 07:00:23;;;;;;;2.53;1.80;;;;;;;17.47;63.59;100207.78;5115156;28;20054;-55
2022/07/03 07:03:07;;;;;;;2.50;2.00;;;;;;;17.47;63.55;100211.25;5114537;28;20128;-56
2022/07/03 07:05:53;;;;;;;2.92;2.13;;;;;;;17.48;63.52;100217.38;5114853;28;20047;-55
2022/07/03 07:08:37;;;;;;;4.63;2.08;;;;;;;17.52;63.65;100205.09;5099714;28;20525;-55
2022/07/03 07:11:21;;;;;;;5.80;1.65;;;;;;;17.52;63.57;100213.81;5114399;28;20038;-55
2022/07/03 07:14:08;;;;;;;4.07;1.85;;;;;;;17.53;63.63;100218.16;5114730;28;20050;-56
2022/07/03 07:16:52;;;;;;;3.10;1.70;;;;;;;17.50;63.63;100205.13;5114324;28;20089;-55
2022/07/03 07:19:36;;;;;;;2.90;1.60;;;;;;;17.50;63.59;100216.47;5114200;28;20096;-56
2022/07/03 07:22:20;;;;;;;3.03;1.83;;;;;;;17.48;63.56;100204.28;5114315;28;20100;-55
2022/07/03 07:25:05;;;;;;;5.68;1.80;;;;;;;17.50;63.49;100210.38;5114467;28;20181;-56
2022/07/03 07:27:48;;;;;;;3.30;1.90;;;;;;;17.50;63.57;100210.38;5099269;28;20054;-56
2022/07/03 07:30:32;;;;;;;3.30;1.98;;;;;;;17.52;63.58;100208.56;5114095;28;20092;-55
2022/07/03 07:33:16;;;;;;;2.40;1.60;;;;;;;17.52;63.55;100208.56;5113763;28;20097;-55
2022/07/03 07:36:01;;;;;;;4.10;2.10;;;;;;;17.53;63.50;100198.97;5113722;28;20054;-55
2022/07/03 07:38:45;;;;;;;3.85;1.70;;;;;;;17.54;63.39;100214.66;5114414;28;20123;-56
2022/07/03 07:41:29;;;;;;;3.83;1.60;;;;;;;17.55;63.42;100205.06;5099384;28;20131;-57
2022/07/03 07:44:13;;;;;;;2.92;1.70;;;;;;;17.54;63.48;100214.66;5114095;28;20140;-56
2022/07/03 07:46:57;;;;;;;3.08;2.03;;;;;;;17.54;63.64;100206.81;5114002;28;20055;-56
2022/07/03 07:49:41;;;;;;;3.67;1.80;;;;;;;17.55;63.50;100211.16;5114010;28;20039;-57
2022/07/03 07:52:28;;;;;;;3.08;1.98;;;;;;;17.57;63.62;100219.88;5127267;27;20115;-56
2022/07/03 07:55:12;;;;;;;3.58;1.77;;;;;;;17.57;63.63;100209.41;5113749;28;20043;-55
2022/07/03 07:57:57;;;;;;;3.95;1.83;;;;;;;17.58;63.60;100219.00;5113603;28;20104;-55
2022/07/03 08:05:35;;;;;;;3.30;1.70;;;;;;;17.59;63.53;100212.03;5113857;28;20082;-55
2022/07/03 08:06:48;;;;;;;2.17;1.80;;;;;;;17.59;63.66;100215.50;5113973;28;20042;-55
2022/07/03 08:09:32;;;;;;;3.63;1.80;;;;;;;17.60;63.67;100212.00;5113907;28;20454;-56
2022/07/03 08:12:16;;;;;;;5.10;2.17;;;;;;;17.60;63.99;100212.00;5113968;28;20104;-57
2022/07/03 08:15:00;;;;;;;1.75;1.65;;;;;;;17.62;63.59;100209.34;5113992;28;20042;-57
2022/07/03 08:17:44;;;;;;;2.90;1.75;;;;;;;17.63;63.70;100213.72;5113550;28;20144;-57
2022/07/03 08:20:28;;;;;;;2.70;1.90;;;;;;;17.64;63.56;100221.56;5098594;28;20555;-57
2022/07/03 08:23:13;;;;;;;3.40;1.85;;;;;;;17.64;63.70;100216.34;5114019;28;20399;-57
2022/07/03 08:25:57;;;;;;;2.33;1.92;;;;;;;17.67;63.82;100218.03;5114019;28;20456;-57
2022/07/03 08:28:41;;;;;;;2.53;1.80;;;;;;;17.68;63.66;100208.41;5113646;28;20492;-57
2022/07/03 08:31:27;;;;;;;2.88;1.70;;;;;;;17.70;63.64;100209.28;5098616;28;20452;-57
2022/07/03 08:34:13;;;;;;;2.35;1.73;;;;;;;17.71;63.85;100217.13;5098540;28;20054;-57
2022/07/03 08:36:58;;;;;;;1.92;1.40;;;;;;;17.71;63.87;100219.75;5126583;28;20043;-57
2022/07/03 08:39:42;;;;;;;1.35;1.20;;;;;;;17.73;63.76;100218.00;5113217;28;20403;-57
2022/07/03 08:42:28;;;;;;;2.88;1.77;;;;;;;17.74;63.92;100224.09;5113644;28;20058;-57
2022/07/03 08:45:17;;;;;;;2.25;1.77;;;;;;;17.77;63.85;100221.44;5097982;28;20415;-56
2022/07/03 08:48:02;;;;;;;3.08;1.50;;;;;;;17.78;63.85;100217.94;5098047;28;20096;-56
2022/07/03 08:50:47;;;;;;;2.47;1.67;;;;;;;17.80;63.80;100216.16;5098290;28;20096;-56
2022/07/03 08:53:31;;;;;;;2.53;1.40;;;;;;;17.80;63.63;100211.78;5098301;28;20398;-55
2022/07/03 08:56:15;;;;;;;3.80;1.60;;;;;;;17.82;63.71;100222.25;5113027;28;20057;-56
2022/07/03 08:59:02;;;;;;;3.20;1.80;;;;;;;17.83;64.04;100220.50;5098324;28;20074;-55
2022/07/03 09:01:46;;;;;;;2.90;1.88;;;;;;;17.84;63.90;100212.59;5097796;28;20185;-56
2022/07/03 09:04:34;;;;;;;3.67;1.48;;;;;;;17.87;63.91;100222.22;5115117;28;20051;-57
2022/07/03 09:07:20;;;;;;;2.38;1.58;;;;;;;17.88;63.79;100216.09;5117236;28;20100;-57
2022/07/03 09:10:05;;;;;;;1.73;1.55;;;;;;;17.88;63.78;100210.84;5130511;27;20042;-57
2022/07/03 09:12:49;;;;;;;3.63;1.48;;;;;;;17.91;63.88;100210.78;5101542;28;20127;-57
2022/07/03 09:15:33;;;;;;;3.90;1.88;;;;;;;17.94;63.91;100214.25;5116669;28;20042;-57
2022/07/03 09:18:37;;;;;;;4.45;1.80;;;;;;;17.95;63.67;100208.13;5116763;28;20081;-55
2022/07/03 09:21:21;;;;;;;3.00;1.63;;;;;;;17.95;63.66;100212.47;5101497;28;20170;-56
2022/07/03 09:24:07;;;;;;;2.38;1.58;;;;;;;17.95;63.76;100217.72;5116618;28;20065;-56
2022/07/03 09:26:53;;;;;;;3.55;1.65;;;;;;;17.98;63.78;100216.88;5101504;28;20127;-57
2022/07/03 09:29:50;;;;;;;2.40;1.90;;;;;;;17.99;63.59;100214.22;5100976;28;20038;-57
2022/07/03 09:32:38;;;;;;;1.83;1.40;;;;;;;18.01;63.71;100219.44;5129835;27;20093;-57
2022/07/03 09:35:24;;;;;;;3.13;1.67;;;;;;;18.04;63.65;100217.66;5100560;28;20548;-57
2022/07/03 09:38:08;;;;;;;2.97;1.70;;;;;;;18.06;63.54;100225.50;5116189;28;20517;-57
2022/07/03 09:40:54;;;;;;;2.55;1.85;;;;;;;18.06;63.54;100222.88;5116425;28;20512;-57
2022/07/03 09:43:43;;;;;;;3.05;1.70;;;;;;;18.06;63.65;100228.13;5101230;28;20050;-57
2022/07/03 09:46:27;;;;;;;3.25;1.67;;;;;;;18.06;63.53;100223.75;5116106;28;20046;-57
2022/07/03 09:49:11;;;;;;;2.17;1.70;;;;;;;18.07;63.56;100222.00;5116007;28;20121;-57
2022/07/03 09:51:56;;;;;;;3.92;1.60;;;;;;;18.08;63.59;100227.22;5116109;28;20085;-57
2022/07/03 09:54:42;;;;;;;2.22;1.60;;;;;;;18.10;63.68;100229.84;5101046;28;20399;-57
2022/07/03 09:57:28;;;;;;;2.13;1.50;;;;;;;18.11;63.63;100228.94;5094559;28;20059;-57
2022/07/03 10:00:21;;;;;;;4.63;1.67;;;;;;;18.14;63.75;100226.25;5094996;28;20047;-55
2022/07/03 10:03:09;;;;;;;2.33;1.50;;;;;;;18.16;63.56;100237.59;5094698;28;20058;-56
2022/07/03 10:06:03;;;;;;;3.35;1.88;;;;;;;18.19;63.60;100247.22;5095820;28;20058;-56
2022/07/03 10:08:47;;;;;;;1.85;1.45;;;;;;;18.21;63.58;100235.81;5094516;28;20055;-55
2022/07/03 10:11:31;;;;;;;3.00;1.55;;;;;;;18.22;63.39;100227.06;5094144;28;20569;-56
2022/07/03 10:14:20;;;;;;;2.90;1.75;;;;;;;18.23;63.65;100223.53;5095609;28;20054;-56
2022/07/03 10:17:07;;;;;;;1.67;1.58;;;;;;;18.25;63.53;100229.66;5093958;28;20124;-56
2022/07/03 10:19:52;;;;;;;3.63;1.65;;;;;;;18.26;63.22;100228.75;5095136;28;20541;-56
2022/07/03 10:22:38;;;;;;;5.35;1.52;;;;;;;18.29;63.56;100227.00;5094534;28;20110;-55
2022/07/03 10:25:22;;;;;;;4.63;1.80;;;;;;;18.29;63.38;100237.47;5094395;28;20093;-56
2022/07/03 10:28:08;;;;;;;5.53;1.55;;;;;;;18.29;63.48;100234.84;5093781;28;20058;-55
2022/07/03 10:30:55;;;;;;;3.72;1.70;;;;;;;18.30;63.40;100226.97;5094140;28;20505;-55
2022/07/03 10:33:40;;;;;;;2.47;1.77;;;;;;;18.32;63.52;100235.69;5094274;28;20043;-55
2022/07/03 10:36:24;;;;;;;3.50;1.50;;;;;;;18.32;63.39;100235.69;5094050;28;20564;-57
2022/07/03 10:39:18;;;;;;;2.70;1.90;;;;;;;18.35;63.32;100234.75;5095120;28;20047;-57
2022/07/03 10:45:13;;;;;;;4.55;2.28;;;;;;;18.36;63.35;100244.38;5094295;28;20067;-55
2022/07/03 10:48:00;;;;;;;3.78;2.38;;;;;;;18.37;63.50;100238.22;5093561;28;20105;-55
2022/07/03 10:51:05;;;;;;;1.75;1.48;;;;;;;18.39;63.47;100244.34;5122296;27;20089;-55
2022/07/03 10:53:49;;;;;;;6.60;2.55;;;;;;;18.41;63.39;100232.06;5094256;28;20445;-55
2022/07/03 10:57:00;;;;;;;2.40;1.48;;;;;;;18.42;63.37;100239.06;5093266;28;20078;-55
2022/07/03 10:59:44;;;;;;;5.95;1.50;;;;;;;18.43;63.23;100243.41;5093783;28;20058;-55
2022/07/03 11:02:46;;;;;;;3.75;1.52;;;;;;;18.45;63.35;100233.75;5094275;28;20521;-55
2022/07/03 11:05:37;;;;;;;5.90;1.80;;;;;;;18.47;63.28;100239.84;5093047;28;20047;-56
2022/07/03 11:08:21;;;;;;;2.92;1.55;;;;;;;18.47;63.37;100238.97;5093386;28;20051;-55
2022/07/03 11:14:35;;;;;;;3.55;1.50;;;;;;;18.45;63.22;100236.34;5094065;28;20170;-56
2022/07/03 11:17:21;;;;;;;2.45;1.80;;;;;;;18.47;62.92;100231.13;5094132;28;20394;-55
2022/07/03 11:20:24;;;;;;;3.53;1.48;;;;;;;18.49;63.12;100234.59;5093457;28;20047;-56
2022/07/03 11:23:26;;;;;;;1.92;1.60;;;;;;;18.50;63.09;100223.22;5093733;28;20538;-57
2022/07/03 11:26:10;;;;;;;5.35;2.60;;;;;;;18.66;62.91;100229.09;5093481;28;20122;-60
2022/07/03 11:28:55;;;;;;;3.80;2.05;;;;;;;18.78;62.86;100226.28;5093663;28;20043;-58
2022/07/03 11:31:39;;;;;;;2.33;1.58;;;;;;;18.90;62.25;100229.63;5092922;28;20503;-58
2022/07/03 11:34:23;;;;;;;5.22;2.15;;;;;;;18.98;62.45;100233.03;5094164;28;20097;-59
2022/07/03 11:37:07;;;;;;;2.30;1.42;;;;;;;19.03;62.25;100231.19;5093644;28;20119;-60
2022/07/03 11:39:56;;;;;;;7.28;2.40;;;;;;;19.05;62.26;100224.16;5092810;28;20082;-60
2022/07/03 11:42:40;;;;;;;3.10;1.70;;;;;;;19.11;62.21;100224.03;5092753;28;20089;-59
2022/07/03 11:45:30;;;;;;;3.28;1.83;;;;;;;19.13;61.87;100226.66;5093888;28;20055;-59
2022/07/03 11:48:19;;;;;;;2.90;1.67;;;;;;;19.17;61.82;100220.44;5093767;28;20386;-58
2022/07/03 11:51:04;;;;;;;3.88;1.55;;;;;;;19.14;61.66;100224.00;5092578;28;20046;-58
2022/07/03 11:53:48;;;;;;;5.07;1.65;;;;;;;19.12;61.79;100220.53;5092683;28;20082;-59
2022/07/03 11:56:34;;;;;;;1.50;1.40;;;;;;;19.12;61.34;100215.28;5103612;28;20096;-58
2022/07/03 11:59:19;;;;;;;5.03;1.85;;;;;;;19.12;61.62;100211.78;5113786;28;20093;-59
2022/07/03 12:02:03;;;;;;;;;;;;;;;19.12;61.64;100220.53;5114583;28;20398;-60
2022/07/03 12:04:49;;;;;;;6.93;1.75;;;;;;;19.11;61.15;100217.94;5098652;28;19922;-59
2022/07/03 12:07:33;;;;;;;4.32;1.80;;;;;;;19.12;61.62;100217.91;5098321;28;20539;-60
2022/07/03 12:10:17;;;;;;;3.63;1.73;;;;;;;19.14;61.60;100221.38;5098742;28;20135;-60
2022/07/03 12:13:01;;;;;;;2.95;1.58;;;;;;;19.15;61.25;100215.22;5098589;28;20038;-60
2022/07/03 12:15:46;;;;;;;4.38;1.88;;;;;;;19.15;61.25;100220.47;5113846;28;20070;-58
2022/07/03 12:18:51;;;;;;;4.85;1.95;;;;;;;19.15;61.61;100220.47;5098673;28;20051;-59
2022/07/03 12:21:37;;;;;;;2.53;1.80;;;;;;;19.16;61.56;100210.81;5098243;28;20046;-59
2022/07/03 12:24:22;;;;;;;6.28;1.70;;;;;;;19.20;61.48;100222.19;5098600;28;20153;-60
2022/07/03 12:27:06;;;;;;;3.03;2.25;;;;;;;19.21;61.65;100224.75;5113162;28;20047;-60
2022/07/03 12:29:51;;;;;;;4.13;2.03;;;;;;;19.21;61.35;100230.03;5098244;28;20074;-58
2022/07/03 12:32:37;;;;;;;5.05;1.75;;;;;;;19.21;61.36;100221.28;5098654;28;20448;-58
2022/07/03 12:35:22;;;;;;;3.92;1.60;;;;;;;19.24;61.46;100229.09;5113614;28;20101;-58
2022/07/03 12:38:06;;;;;;;4.40;2.50;;;;;;;19.23;61.35;100220.34;5098112;28;20069;-60
2022/07/03 12:41:10;;;;;;;12.57;2.35;;;;;;;19.23;61.41;100211.63;5102129;28;20097;-58
2022/07/03 12:43:56;;;;;;;4.28;2.13;;;;;;;19.27;61.25;100211.53;5102253;28;20043;-60
2022/07/03 12:46:44;;;;;;;9.48;2.10;;;;;;;19.32;61.14;100201.78;5101979;28;20055;-60
2022/07/03 12:49:29;;;;;;;3.15;2.05;;;;;;;19.31;61.21;100204.47;5101836;28;20051;-60
2022/07/03 12:52:12;;;;;;;6.68;2.53;;;;;;;19.36;61.26;100202.63;5117605;28;20089;-60
2022/07/03 12:54:58;;;;;;;5.72;3.00;;;;;;;19.41;60.98;100199.91;5117197;28;20127;-59
2022/07/03 13:00:48;;;;;;;3.63;2.10;;;;;;;19.41;60.93;100200.75;5097054;28;20055;-58
2022/07/03 13:03:39;;;;;;;5.53;2.70;;;;;;;19.45;61.00;100199.81;5095658;28;20054;-58
2022/07/03 13:06:24;;;;;;;8.80;3.15;;;;;;;19.52;60.69;100205.84;5095750;28;20050;-58
2022/07/03 13:09:08;;;;;;;4.10;2.50;;;;;;;19.52;60.41;100204.97;5095376;28;20059;-59
2022/07/03 13:11:52;;;;;;;4.60;2.50;;;;;;;19.47;60.67;100195.41;5096650;28;20066;-60